Time;durP1;ratioP1;P1;durP2;ratioP2;P2;SDS_P1;SDS_P2;PMS_P1;PMS_P2;Temp;Humidity;BMP_temperature;BMP_pressure;BME280_temperature;BME280_humidity;BME280_pressure;Samples;Min_cycle;Max_cycle;Signal;HPM_P1;HPM_P2
2022/06/19 00:02:16;;;;;;;3.17;0.88;;;;;;;;;;5098729;28;20024;-76
2022/06/19 00:04:42;;;;;;;4.13;1.10;;;;;;;;;;5100358;28;20039;-76
2022/06/19 00:07:09;;;;;;;5.28;1.05;;;;;;;;;;5101744;27;20392;-75
2022/06/19 00:09:35;;;;;;;3.03;0.88;;;;;;;;;;5102996;27;20035;-76
2022/06/19 00:12:00;;;;;;;4.57;1.38;;;;;;;;;;5105895;28;20108;-75
2022/06/19 00:14:26;;;;;;;4.43;0.90;;;;;;;;;;5103992;27;20429;-75
2022/06/19 00:16:52;;;;;;;3.85;0.80;;;;;;;;;;5099138;27;20141;-75
2022/06/19 00:19:17;;;;;;;4.78;0.80;;;;;;;;;;5097416;27;20053;-75
2022/06/19 00:21:44;;;;;;;7.68;1.08;;;;;;;;;;5102861;27;20458;-75
2022/06/19 00:24:10;;;;;;;5.60;1.42;;;;;;;;;;5103561;28;20036;-74
2022/06/19 00:26:35;;;;;;;3.38;0.93;;;;;;;;;;5100931;28;20024;-75
2022/06/19 00:29:00;;;;;;;5.18;0.90;;;;;;;;;;5094662;28;20455;-75
2022/06/19 00:31:26;;;;;;;4.00;0.95;;;;;;;;;;5094582;28;20019;-75
2022/06/19 00:33:53;;;;;;;7.13;1.17;;;;;;;;;;5096887;27;20023;-76
2022/06/19 00:36:21;;;;;;;5.55;1.10;;;;;;;;;;5093807;28;20028;-75
2022/06/19 00:38:47;;;;;;;4.85;1.13;;;;;;;;;;5098037;28;20039;-75
2022/06/19 00:41:13;;;;;;;5.85;1.25;;;;;;;;;;5094853;28;21284;-76
2022/06/19 00:44:01;;;;;;;3.80;0.90;;;;;;;;;;5097364;28;20053;-75
2022/06/19 00:46:35;;;;;;;4.30;0.95;;;;;;;;;;5101085;28;20087;-75
2022/06/19 00:49:00;;;;;;;6.30;0.98;;;;;;;;;;5099056;28;20032;-75
2022/06/19 00:51:26;;;;;;;3.28;1.10;;;;;;;;;;5097090;28;20034;-74
2022/06/19 00:53:51;;;;;;;6.80;1.20;;;;;;;;;;5102210;28;20034;-75
2022/06/19 00:56:19;;;;;;;6.55;1.42;;;;;;;;;;5098834;28;20116;-75
2022/06/19 00:58:47;;;;;;;4.70;1.00;;;;;;;;;;5102854;28;20726;-75
2022/06/19 01:01:16;;;;;;;5.60;1.05;;;;;;;;;;5095863;28;20036;-75
2022/06/19 01:03:53;;;;;;;5.05;1.02;;;;;;;;;;5101210;28;20369;-75
2022/06/19 01:06:21;;;;;;;5.65;1.10;;;;;;;;;;5094495;28;20384;-75
2022/06/19 01:08:47;;;;;;;7.05;1.10;;;;;;;;;;5098010;28;20023;-75
2022/06/19 01:11:14;;;;;;;7.18;1.05;;;;;;;;;;5096229;28;20032;-75
2022/06/19 01:13:40;;;;;;;4.88;0.90;;;;;;;;;;5097664;28;20502;-73
2022/06/19 01:16:06;;;;;;;5.15;0.93;;;;;;;;;;5102086;28;20028;-75
2022/06/19 01:18:34;;;;;;;5.97;1.40;;;;;;;;;;5099183;28;20071;-75
2022/06/19 01:21:38;;;;;;;9.43;2.15;;;;;;;;;;5098296;28;20027;-75
2022/06/19 01:24:18;;;;;;;5.40;1.17;;;;;;;;;;5102542;28;20024;-76
2022/06/19 01:26:46;;;;;;;8.52;1.10;;;;;;;;;;5100290;28;20399;-75
2022/06/19 01:29:14;;;;;;;6.05;1.42;;;;;;;;;;5092676;28;20081;-75
2022/06/19 01:31:52;;;;;;;5.22;1.00;;;;;;;;;;5096755;28;20106;-73
2022/06/19 01:34:32;;;;;;;6.22;1.20;;;;;;;;;;5096655;28;20132;-75
2022/06/19 01:37:13;;;;;;;2.92;0.73;;;;;;;;;;5096282;28;20487;-73
2022/06/19 01:39:50;;;;;;;5.72;1.00;;;;;;;;;;5096864;28;20031;-75
2022/06/19 01:42:16;;;;;;;6.82;1.10;;;;;;;;;;5094613;28;20051;-75
2022/06/19 01:44:44;;;;;;;6.75;1.00;;;;;;;;;;5098493;28;20028;-76
2022/06/19 01:47:10;;;;;;;4.60;1.05;;;;;;;;;;5099577;28;20039;-75
2022/06/19 01:49:38;;;;;;;4.80;0.90;;;;;;;;;;5098554;28;20031;-75
2022/06/19 01:52:05;;;;;;;6.15;1.00;;;;;;;;;;5097550;27;20032;-75
2022/06/19 01:54:38;;;;;;;4.00;1.15;;;;;;;;;;5104804;27;20534;-73
2022/06/19 01:57:08;;;;;;;3.92;0.90;;;;;;;;;;5101384;27;20032;-75
2022/06/19 01:59:35;;;;;;;4.63;0.85;;;;;;;;;;5112461;27;20035;-74
2022/06/19 02:02:04;;;;;;;7.05;1.40;;;;;;;;;;5101670;28;20032;-75
2022/06/19 02:04:31;;;;;;;5.18;0.80;;;;;;;;;;5115483;27;20083;-74
2022/06/19 02:07:01;;;;;;;5.40;1.42;;;;;;;;;;5106727;27;20119;-74
2022/06/19 02:09:27;;;;;;;5.03;0.70;;;;;;;;;;5100173;27;20028;-75
2022/06/19 02:11:53;;;;;;;6.20;1.00;;;;;;;;;;5101760;28;20436;-73
2022/06/19 02:14:19;;;;;;;6.05;1.05;;;;;;;;;;5099721;27;20023;-75
2022/06/19 02:16:47;;;;;;;4.65;1.08;;;;;;;;;;5105196;27;20023;-73
2022/06/19 02:19:13;;;;;;;4.63;1.02;;;;;;;;;;5103158;28;20080;-75
2022/06/19 02:21:48;;;;;;;4.45;0.82;;;;;;;;;;5100243;27;20035;-76
2022/06/19 02:24:21;;;;;;;3.85;0.70;;;;;;;;;;5099383;27;20027;-75
2022/06/19 02:26:48;;;;;;;3.47;0.90;;;;;;;;;;5116599;27;21239;-75
2022/06/19 02:29:16;;;;;;;3.28;0.80;;;;;;;;;;5101052;27;20070;-73
2022/06/19 02:31:44;;;;;;;4.78;0.88;;;;;;;;;;5103174;28;20027;-75
2022/06/19 02:34:37;;;;;;;6.13;1.17;;;;;;;;;;5096942;27;20567;-75
2022/06/19 02:37:14;;;;;;;3.78;0.80;;;;;;;;;;5100202;28;20050;-75
2022/06/19 02:39:49;;;;;;;5.25;1.13;;;;;;;;;;5095079;28;20032;-73
2022/06/19 02:42:29;;;;;;;4.30;1.10;;;;;;;;;;5100796;28;20058;-74
2022/06/19 02:44:57;;;;;;;3.70;1.00;;;;;;;;;;5103608;27;20024;-75
2022/06/19 02:47:25;;;;;;;4.60;0.80;;;;;;;;;;5102736;27;20064;-75
2022/06/19 02:49:51;;;;;;;3.05;0.70;;;;;;;;;;5098760;27;20034;-73
2022/06/19 02:52:17;;;;;;;3.53;0.70;;;;;;;;;;5099385;28;20392;-75
2022/06/19 02:54:42;;;;;;;2.92;0.65;;;;;;;;;;5092454;27;20035;-75
2022/06/19 02:57:11;;;;;;;4.32;0.80;;;;;;;;;;5102191;27;20027;-76
2022/06/19 02:59:37;;;;;;;4.97;0.90;;;;;;;;;;5100935;27;20032;-75
2022/06/19 03:02:03;;;;;;;3.28;0.70;;;;;;;;;;5101736;28;20035;-74
2022/06/19 03:04:42;;;;;;;4.40;0.95;;;;;;;;;;5101294;28;20506;-75
2022/06/19 03:07:08;;;;;;;4.80;1.02;;;;;;;;;;5098810;28;20023;-75
2022/06/19 03:09:34;;;;;;;4.10;0.50;;;;;;;;;;5100040;28;20066;-72
2022/06/19 03:11:59;;;;;;;5.65;0.88;;;;;;;;;;5103898;28;20064;-75
2022/06/19 03:14:25;;;;;;;1.27;0.55;;;;;;;;;;5112586;27;20472;-75
2022/06/19 03:16:51;;;;;;;3.80;0.70;;;;;;;;;;5104141;27;20016;-76
2022/06/19 03:19:16;;;;;;;3.45;0.73;;;;;;;;;;5095628;27;20047;-75
2022/06/19 03:21:42;;;;;;;2.72;0.50;;;;;;;;;;5099353;27;20054;-73
2022/06/19 03:24:07;;;;;;;2.97;0.50;;;;;;;;;;5095527;27;20080;-75
2022/06/19 03:26:33;;;;;;;3.03;0.70;;;;;;;;;;5102087;27;20027;-75
2022/06/19 03:28:58;;;;;;;2.00;0.43;;;;;;;;;;5103370;28;20482;-75
2022/06/19 03:31:26;;;;;;;4.13;0.70;;;;;;;;;;5102027;28;20379;-75
2022/06/19 03:33:52;;;;;;;1.95;0.45;;;;;;;;;;5100013;27;20765;-75
2022/06/19 03:36:18;;;;;;;1.58;0.40;;;;;;;;;;5099531;27;20098;-73
2022/06/19 03:38:44;;;;;;;2.42;0.50;;;;;;;;;;5099521;28;20047;-75
2022/06/19 03:41:09;;;;;;;3.25;0.60;;;;;;;;;;5097186;28;20045;-75
2022/06/19 03:43:35;;;;;;;1.50;0.47;;;;;;;;;;5103412;27;20026;-75
2022/06/19 03:46:03;;;;;;;4.93;0.60;;;;;;;;;;5093553;28;20028;-75
2022/06/19 03:48:29;;;;;;;5.93;0.65;;;;;;;;;;5102026;28;20506;-75
2022/06/19 03:50:55;;;;;;;1.95;0.70;;;;;;;;;;5097735;28;20126;-75
2022/06/19 03:53:20;;;;;;;4.60;0.70;;;;;;;;;;5103829;28;20114;-73
2022/06/19 03:55:47;;;;;;;6.22;0.52;;;;;;;;;;5103306;28;20043;-74
2022/06/19 03:58:12;;;;;;;2.88;0.80;;;;;;;;;;5093652;28;20039;-73
2022/06/19 04:00:38;;;;;;;5.75;0.70;;;;;;;;;;5104205;27;20027;-75
2022/06/19 04:03:03;;;;;;;3.10;0.57;;;;;;;;;;5101867;27;20574;-75
2022/06/19 04:05:29;;;;;;;4.03;0.60;;;;;;;;;;5119909;27;20082;-75
2022/06/19 04:07:54;;;;;;;5.20;1.00;;;;;;;;;;5098441;28;20028;-75
2022/06/19 04:10:21;;;;;;;4.85;0.70;;;;;;;;;;5105633;28;20355;-74
2022/06/19 04:12:46;;;;;;;3.58;0.65;;;;;;;;;;5102332;28;20069;-75
2022/06/19 04:15:12;;;;;;;5.47;1.10;;;;;;;;;;5102837;28;20032;-75
2022/06/19 04:17:38;;;;;;;4.43;0.90;;;;;;;;;;5095930;27;20121;-75
2022/06/19 04:20:07;;;;;;;5.07;0.70;;;;;;;;;;5105833;27;20045;-74
2022/06/19 04:22:32;;;;;;;2.78;0.70;;;;;;;;;;5097814;28;20040;-76
2022/06/19 04:24:58;;;;;;;3.58;0.80;;;;;;;;;;5104582;28;20484;-76
2022/06/19 04:27:23;;;;;;;1.40;0.40;;;;;;;;;;5098628;27;20039;-72
2022/06/19 04:29:49;;;;;;;4.60;0.60;;;;;;;;;;5105045;28;20023;-75
2022/06/19 04:32:15;;;;;;;4.75;0.90;;;;;;;;;;5097947;28;20035;-75
2022/06/19 04:34:40;;;;;;;4.70;0.85;;;;;;;;;;5098065;27;20072;-75
2022/06/19 04:37:05;;;;;;;4.18;0.80;;;;;;;;;;5095545;28;20066;-75
2022/06/19 04:39:31;;;;;;;3.75;0.65;;;;;;;;;;5100509;28;20019;-76
2022/06/19 04:41:56;;;;;;;5.90;1.27;;;;;;;;;;5097096;28;20019;-75
2022/06/19 04:44:21;;;;;;;3.45;0.75;;;;;;;;;;5100518;27;20462;-75
2022/06/19 04:46:47;;;;;;;6.03;0.80;;;;;;;;;;5090000;28;20054;-75
2022/06/19 04:49:14;;;;;;;4.80;0.98;;;;;;;;;;5100070;28;20114;-74
2022/06/19 04:51:40;;;;;;;5.13;0.80;;;;;;;;;;5099487;28;20028;-75
2022/06/19 04:54:06;;;;;;;5.70;0.90;;;;;;;;;;5102660;28;20420;-75
2022/06/19 04:56:33;;;;;;;4.28;0.70;;;;;;;;;;5099084;28;20081;-75
2022/06/19 04:58:58;;;;;;;7.55;1.27;;;;;;;;;;5097790;28;20122;-74
2022/06/19 05:01:27;;;;;;;3.85;0.70;;;;;;;;;;5106069;28;20135;-74
2022/06/19 05:03:55;;;;;;;6.55;1.05;;;;;;;;;;5105616;27;20032;-75
2022/06/19 05:06:21;;;;;;;3.38;0.70;;;;;;;;;;5097061;28;20024;-74
2022/06/19 05:08:47;;;;;;;4.10;0.63;;;;;;;;;;5094810;28;20034;-76
2022/06/19 05:11:12;;;;;;;6.47;1.00;;;;;;;;;;5105881;28;20023;-74
2022/06/19 05:13:38;;;;;;;3.92;0.98;;;;;;;;;;5097716;28;20031;-73
2022/06/19 05:16:07;;;;;;;2.20;0.60;;;;;;;;;;5101915;28;20043;-76
2022/06/19 05:18:34;;;;;;;6.78;0.70;;;;;;;;;;5112277;27;20032;-75
2022/06/19 05:21:04;;;;;;;3.55;0.80;;;;;;;;;;5100145;28;20024;-74
2022/06/19 05:23:34;;;;;;;1.80;0.63;;;;;;;;;;5098045;28;20122;-75
2022/06/19 05:26:12;;;;;;;3.42;0.60;;;;;;;;;;5106479;28;20042;-75
2022/06/19 05:28:37;;;;;;;4.47;0.50;;;;;;;;;;5099100;28;20128;-74
2022/06/19 05:31:03;;;;;;;4.10;0.82;;;;;;;;;;5107279;27;20051;-74
2022/06/19 05:33:30;;;;;;;5.70;0.73;;;;;;;;;;5100600;27;20051;-74
2022/06/19 05:35:56;;;;;;;2.42;0.52;;;;;;;;;;5106632;27;20605;-74
2022/06/19 05:38:22;;;;;;;5.80;0.75;;;;;;;;;;5103414;27;20122;-74
2022/06/19 05:40:52;;;;;;;4.57;0.70;;;;;;;;;;5103469;27;20035;-73
2022/06/19 05:43:19;;;;;;;2.35;0.60;;;;;;;;;;5105274;27;20032;-73
2022/06/19 05:45:56;;;;;;;2.95;0.60;;;;;;;;;;5106407;28;20019;-73
2022/06/19 05:48:23;;;;;;;4.88;0.68;;;;;;;;;;5104067;27;20032;-74
2022/06/19 05:51:07;;;;;;;4.88;0.68;;;;;;;;;;5101007;28;20020;-75
2022/06/19 05:53:38;;;;;;;2.92;0.75;;;;;;;;;;5118917;27;20035;-76
2022/06/19 05:56:04;;;;;;;2.65;0.68;;;;;;;;;;5104023;27;20991;-75
2022/06/19 05:58:30;;;;;;;3.60;0.80;;;;;;;;;;5102923;27;20081;-74
2022/06/19 06:00:56;;;;;;;3.50;0.80;;;;;;;;;;5104729;28;20040;-74
2022/06/19 06:03:23;;;;;;;2.92;0.70;;;;;;;;;;5104497;27;20035;-74
2022/06/19 06:05:48;;;;;;;1.90;0.57;;;;;;;;;;5104355;27;20030;-76
2022/06/19 06:08:15;;;;;;;4.05;0.77;;;;;;;;;;5107945;28;20508;-75
2022/06/19 06:10:40;;;;;;;2.25;0.50;;;;;;;;;;5095575;27;20026;-73
2022/06/19 06:13:06;;;;;;;4.13;0.57;;;;;;;;;;5106236;27;20028;-74
2022/06/19 06:15:32;;;;;;;3.20;0.63;;;;;;;;;;5102781;27;20064;-76
2022/06/19 06:17:58;;;;;;;2.90;0.50;;;;;;;;;;5104880;28;20112;-74
2022/06/19 06:20:24;;;;;;;3.22;0.70;;;;;;;;;;5101839;27;20161;-73
2022/06/19 06:22:49;;;;;;;3.53;0.73;;;;;;;;;;5102498;27;20115;-75
2022/06/19 06:25:15;;;;;;;2.92;0.60;;;;;;;;;;5102221;27;20039;-75
2022/06/19 06:27:40;;;;;;;4.95;0.68;;;;;;;;;;5104076;28;20024;-75
2022/06/19 06:30:06;;;;;;;7.03;1.42;;;;;;;;;;5103171;27;20016;-75
2022/06/19 06:32:32;;;;;;;3.35;0.82;;;;;;;;;;5100136;28;20019;-74
2022/06/19 06:34:57;;;;;;;2.40;0.65;;;;;;;;;;5099909;27;20043;-75
2022/06/19 06:37:23;;;;;;;5.38;0.88;;;;;;;;;;5104421;27;20035;-75
2022/06/19 06:39:49;;;;;;;1.98;0.50;;;;;;;;;;5092544;28;20115;-76
2022/06/19 06:42:14;;;;;;;3.75;0.60;;;;;;;;;;5102068;27;20411;-75
2022/06/19 06:44:40;;;;;;;4.63;0.85;;;;;;;;;;5102899;28;20119;-73
2022/06/19 06:47:05;;;;;;;4.63;1.00;;;;;;;;;;5101407;27;20015;-75
2022/06/19 06:49:31;;;;;;;3.65;0.73;;;;;;;;;;5103189;27;20023;-73
2022/06/19 06:51:56;;;;;;;4.20;0.85;;;;;;;;;;5102220;28;20479;-72
2022/06/19 06:54:21;;;;;;;5.70;1.40;;;;;;;;;;5106618;28;20391;-72
2022/06/19 06:56:47;;;;;;;5.82;0.95;;;;;;;;;;5103880;28;20107;-75
2022/06/19 06:59:12;;;;;;;2.25;0.73;;;;;;;;;;5101982;28;20035;-75
2022/06/19 07:01:38;;;;;;;5.25;0.85;;;;;;;;;;5098209;27;20056;-74
2022/06/19 07:04:04;;;;;;;2.92;0.73;;;;;;;;;;5094730;28;20396;-74
2022/06/19 07:06:31;;;;;;;4.13;1.10;;;;;;;;;;5099311;27;20039;-74
2022/06/19 07:08:57;;;;;;;7.38;0.98;;;;;;;;;;5101357;27;20162;-76
2022/06/19 07:11:26;;;;;;;4.00;0.80;;;;;;;;;;5103091;27;20032;-75
2022/06/19 07:13:52;;;;;;;3.78;0.70;;;;;;;;;;5105119;28;20062;-73
2022/06/19 07:16:18;;;;;;;5.53;1.05;;;;;;;;;;5101724;28;20042;-75
2022/06/19 07:18:43;;;;;;;3.75;0.80;;;;;;;;;;5102513;27;20023;-75
2022/06/19 07:21:11;;;;;;;7.88;1.13;;;;;;;;;;5103895;27;20035;-75
2022/06/19 07:23:36;;;;;;;8.57;1.17;;;;;;;;;;5107949;28;20418;-75
2022/06/19 07:26:02;;;;;;;5.80;1.27;;;;;;;;;;5098972;27;20024;-75
2022/06/19 07:28:28;;;;;;;5.80;1.30;;;;;;;;;;5099621;27;20376;-74
2022/06/19 07:30:53;;;;;;;5.60;1.13;;;;;;;;;;5104058;28;20514;-74
2022/06/19 07:33:19;;;;;;;4.95;1.00;;;;;;;;;;5101610;28;20070;-73
2022/06/19 07:35:45;;;;;;;3.92;1.00;;;;;;;;;;5103796;27;20024;-74
2022/06/19 07:38:10;;;;;;;5.70;1.08;;;;;;;;;;5096955;28;20491;-76
2022/06/19 07:40:36;;;;;;;7.97;1.10;;;;;;;;;;5119652;27;20047;-75
2022/06/19 07:43:04;;;;;;;5.25;1.38;;;;;;;;;;5104743;27;20023;-73
2022/06/19 07:45:30;;;;;;;5.28;1.25;;;;;;;;;;5103665;28;20064;-75
2022/06/19 07:50:41;;;;;;;6.53;1.17;;;;;;;;;;5101845;28;20028;-77
2022/06/19 07:53:06;;;;;;;5.07;0.90;;;;;;;;;;5103334;28;20412;-73
2022/06/19 07:55:32;;;;;;;5.10;1.10;;;;;;;;;;5100377;28;20160;-76
2022/06/19 07:57:59;;;;;;;6.00;1.30;;;;;;;;;;5103943;28;20032;-76
2022/06/19 08:00:31;;;;;;;4.32;1.33;;;;;;;;;;5102974;28;20756;-76
2022/06/19 08:02:56;;;;;;;4.63;1.30;;;;;;;;;;5097301;27;21658;-74
2022/06/19 08:05:28;;;;;;;4.82;1.25;;;;;;;;;;5107762;28;20128;-73
2022/06/19 08:07:54;;;;;;;6.22;1.20;;;;;;;;;;5104617;27;20114;-76
2022/06/19 08:10:23;;;;;;;5.50;1.15;;;;;;;;;;5101768;28;20459;-74
2022/06/19 08:12:51;;;;;;;8.52;1.40;;;;;;;;;;5103984;28;20028;-74
2022/06/19 08:15:17;;;;;;;4.18;0.90;;;;;;;;;;5110530;28;20027;-75
2022/06/19 08:17:42;;;;;;;7.32;1.20;;;;;;;;;;5104068;28;20028;-74
2022/06/19 08:20:08;;;;;;;4.03;1.10;;;;;;;;;;5104919;28;20030;-76
2022/06/19 08:22:34;;;;;;;4.32;0.95;;;;;;;;;;5107710;28;20040;-73
2022/06/19 08:24:59;;;;;;;6.53;1.77;;;;;;;;;;5108366;28;20520;-73
2022/06/19 08:27:25;;;;;;;6.20;1.20;;;;;;;;;;5103816;28;20282;-75
2022/06/19 08:29:50;;;;;;;5.35;1.00;;;;;;;;;;5100309;28;20110;-75
2022/06/19 08:32:15;;;;;;;3.70;1.10;;;;;;;;;;5101248;28;20035;-77
2022/06/19 08:34:41;;;;;;;4.82;1.10;;;;;;;;;;5102603;28;20080;-73
2022/06/19 08:37:09;;;;;;;4.82;1.17;;;;;;;;;;5107042;28;20050;-76
2022/06/19 08:39:36;;;;;;;4.95;1.15;;;;;;;;;;5106882;28;20021;-73
2022/06/19 08:42:22;;;;;;;5.93;1.10;;;;;;;;;;5110166;28;20073;-75
2022/06/19 08:45:30;;;;;;;4.22;1.25;;;;;;;;;;5097284;28;20065;-75
2022/06/19 08:48:34;;;;;;;3.92;1.17;;;;;;;;;;5107796;28;20032;-75
2022/06/19 08:51:07;;;;;;;;;;;;;;;;;;5081639;28;20549;-74
2022/06/19 08:53:51;;;;;;;6.72;1.40;;;;;;;;;;5103880;28;19911;-75
2022/06/19 08:56:52;;;;;;;3.72;1.00;;;;;;;;;;5096714;28;20036;-77
2022/06/19 08:59:45;;;;;;;4.53;0.90;;;;;;;;;;5104900;28;20032;-75
2022/06/19 09:02:26;;;;;;;3.78;1.00;;;;;;;;;;5100066;28;20065;-76
2022/06/19 09:08:18;;;;;;;5.10;1.15;;;;;;;;;;5097810;28;20035;-76
2022/06/19 09:10:55;;;;;;;7.53;1.42;;;;;;;;;;5098178;28;20084;-74
2022/06/19 09:13:50;;;;;;;3.28;1.02;;;;;;;;;;5095390;28;20502;-73
2022/06/19 09:16:59;;;;;;;4.50;0.80;;;;;;;;;;5100079;28;20023;-76
2022/06/19 09:20:02;;;;;;;6.38;1.38;;;;;;;;;;5046421;28;20041;-76
2022/06/19 09:22:43;;;;;;;4.03;0.90;;;;;;;;;;5107499;28;20093;-75
2022/06/19 09:25:14;;;;;;;4.75;1.02;;;;;;;;;;5099020;28;20063;-73
2022/06/19 09:28:09;;;;;;;6.68;1.00;;;;;;;;;;5104407;28;20024;-76
2022/06/19 09:30:47;;;;;;;5.22;1.38;;;;;;;;;;5099625;28;20407;-73
2022/06/19 09:33:50;;;;;;;4.43;1.20;;;;;;;;;;5096476;28;20084;-75
2022/06/19 09:36:23;;;;;;;3.88;0.93;;;;;;;;;;5099835;28;20020;-74
2022/06/19 09:38:56;;;;;;;4.30;0.90;;;;;;;;;;5099288;28;20380;-76
2022/06/19 09:41:33;;;;;;;4.85;0.90;;;;;;;;;;5097807;28;20028;-74
2022/06/19 09:44:20;;;;;;;3.85;1.05;;;;;;;;;;5099845;28;20028;-73
2022/06/19 09:46:54;;;;;;;2.58;0.70;;;;;;;;;;5103569;28;20032;-75
2022/06/19 09:49:19;;;;;;;3.03;0.80;;;;;;;;;;5105227;28;20031;-75
2022/06/19 09:52:02;;;;;;;3.75;0.77;;;;;;;;;;5100214;28;20487;-75
2022/06/19 09:54:37;;;;;;;3.78;0.73;;;;;;;;;;5099555;28;20027;-76
2022/06/19 09:57:02;;;;;;;4.07;0.75;;;;;;;;;;5115163;27;20037;-76
2022/06/19 09:59:44;;;;;;;2.67;0.70;;;;;;;;;;5102805;28;20023;-75
2022/06/19 10:02:51;;;;;;;3.67;0.70;;;;;;;;;;5106690;28;20605;-73
2022/06/19 10:05:33;;;;;;;4.07;0.90;;;;;;;;;;5102222;28;20110;-73
2022/06/19 10:08:10;;;;;;;3.97;0.90;;;;;;;;;;5109273;27;20024;-73
2022/06/19 10:10:39;;;;;;;3.08;0.77;;;;;;;;;;5102050;28;20199;-76
2022/06/19 10:13:15;;;;;;;4.22;0.85;;;;;;;;;;5102397;28;20019;-74
2022/06/19 10:15:42;;;;;;;3.50;0.75;;;;;;;;;;5107462;28;20066;-76
2022/06/19 10:18:14;;;;;;;5.43;1.30;;;;;;;;;;5099570;27;20492;-76
2022/06/19 10:20:50;;;;;;;3.75;0.88;;;;;;;;;;5097575;27;20118;-75
2022/06/19 10:23:43;;;;;;;5.53;0.90;;;;;;;;;;5109929;27;20046;-77
2022/06/19 10:26:08;;;;;;;;;;;;;;;;;;5112913;28;20026;-74
2022/06/19 10:28:53;;;;;;;4.27;0.90;;;;;;;;;;5107297;28;19915;-76
2022/06/19 10:31:33;;;;;;;3.63;0.75;;;;;;;;;;5106014;28;20269;-75
2022/06/19 10:34:11;;;;;;;5.28;1.05;;;;;;;;;;5101407;28;20484;-75
2022/06/19 10:37:05;;;;;;;4.32;1.27;;;;;;;;;;5104006;28;20024;-74
2022/06/19 10:40:16;;;;;;;5.20;1.02;;;;;;;;;;5096461;27;20438;-74
2022/06/19 10:43:05;;;;;;;4.00;1.08;;;;;;;;;;5097955;27;20107;-76
2022/06/19 10:45:56;;;;;;;6.00;1.20;;;;;;;;;;5088199;27;20032;-74
2022/06/19 10:48:25;;;;;;;5.32;1.00;;;;;;;;;;5093766;28;20067;-75
2022/06/19 10:51:09;;;;;;;3.97;1.00;;;;;;;;;;5097739;27;20042;-75
2022/06/19 10:53:59;;;;;;;4.97;1.10;;;;;;;;;;5096872;27;20036;-76
2022/06/19 10:56:48;;;;;;;5.68;1.20;;;;;;;;;;5097239;27;20032;-76
2022/06/19 10:59:13;;;;;;;4.15;1.05;;;;;;;;;;5089879;27;20433;-76
2022/06/19 11:04:37;;;;;;;5.70;1.60;;;;;;;;;;5091554;28;20759;-75
2022/06/19 11:07:11;;;;;;;4.88;1.15;;;;;;;;;;5089846;27;20031;-76
2022/06/19 11:09:49;;;;;;;4.60;1.23;;;;;;;;;;5090728;28;20099;-75
2022/06/19 11:12:26;;;;;;;5.47;1.42;;;;;;;;;;5104909;27;20709;-75
2022/06/19 11:14:58;;;;;;;4.32;1.52;;;;;;;;;;5095024;27;20077;-76
2022/06/19 11:17:35;;;;;;;5.93;2.00;;;;;;;;;;5088085;27;20531;-76
2022/06/19 11:20:16;;;;;;;7.57;1.65;;;;;;;;;;5110643;27;20035;-76
2022/06/19 11:22:47;;;;;;;3.75;1.10;;;;;;;;;;5093835;28;20054;-76
2022/06/19 11:25:18;;;;;;;3.03;1.30;;;;;;;;;;5098459;28;20055;-76
2022/06/19 11:27:54;;;;;;;4.32;1.38;;;;;;;;;;5092431;28;20469;-76
2022/06/19 11:30:46;;;;;;;5.13;1.50;;;;;;;;;;5117415;27;20122;-76
2022/06/19 11:33:34;;;;;;;5.00;1.73;;;;;;;;;;5091377;28;20039;-76
2022/06/19 11:36:02;;;;;;;4.13;1.52;;;;;;;;;;5097441;28;20039;-75
2022/06/19 11:38:49;;;;;;;3.88;1.30;;;;;;;;;;5097699;28;20046;-74
2022/06/19 11:41:21;;;;;;;4.32;1.30;;;;;;;;;;5090833;28;20056;-74
2022/06/19 11:44:00;;;;;;;3.75;1.50;;;;;;;;;;5099288;27;20028;-76
2022/06/19 11:46:26;;;;;;;4.32;1.70;;;;;;;;;;5096811;28;20053;-76
2022/06/19 11:48:52;;;;;;;4.13;1.23;;;;;;;;;;5095803;27;20131;-74
2022/06/19 11:51:22;;;;;;;5.38;1.50;;;;;;;;;;5098792;28;20023;-76
2022/06/19 11:53:57;;;;;;;5.47;1.58;;;;;;;;;;5091462;27;20165;-75
2022/06/19 11:56:34;;;;;;;5.97;1.63;;;;;;;;;;5098984;28;20031;-76
2022/06/19 11:59:05;;;;;;;7.05;1.70;;;;;;;;;;5093258;27;20444;-75
2022/06/19 12:01:40;;;;;;;4.35;1.25;;;;;;;;;;5094886;28;21693;-76
2022/06/19 12:04:27;;;;;;;4.82;1.73;;;;;;;;;;5095219;27;20032;-76
2022/06/19 12:06:57;;;;;;;4.40;1.40;;;;;;;;;;5092821;28;20134;-76
2022/06/19 12:09:29;;;;;;;5.28;1.70;;;;;;;;;;5099943;28;20023;-75
2022/06/19 12:12:12;;;;;;;5.10;1.30;;;;;;;;;;5113682;27;20031;-76
2022/06/19 12:15:10;;;;;;;5.10;1.30;;;;;;;;;;5100161;27;20033;-76
2022/06/19 12:17:43;;;;;;;6.05;1.75;;;;;;;;;;5099956;27;20026;-75
2022/06/19 12:20:08;;;;;;;3.90;1.33;;;;;;;;;;5097312;27;20057;-76
2022/06/19 12:23:15;;;;;;;7.72;1.80;;;;;;;;;;5101388;28;20059;-76
2022/06/19 12:25:46;;;;;;;7.07;1.50;;;;;;;;;;5014956;28;20039;-76
2022/06/19 12:28:27;;;;;;;3.33;1.63;;;;;;;;;;5018050;28;20037;-76
2022/06/19 12:30:58;;;;;;;5.28;1.63;;;;;;;;;;5053752;28;20067;-76
2022/06/19 12:33:33;;;;;;;6.53;1.95;;;;;;;;;;5086983;28;20666;-76
2022/06/19 12:36:00;;;;;;;7.97;2.53;;;;;;;;;;5105302;27;20031;-76
2022/06/19 12:38:32;;;;;;;5.38;1.10;;;;;;;;;;5087916;27;20511;-76
2022/06/19 12:41:00;;;;;;;7.43;1.40;;;;;;;;;;5104708;27;20027;-76
2022/06/19 12:43:45;;;;;;;4.95;1.33;;;;;;;;;;5085800;28;20031;-76
2022/06/19 12:46:26;;;;;;;6.97;1.70;;;;;;;;;;5089610;28;20031;-74
2022/06/19 12:48:59;;;;;;;7.78;1.63;;;;;;;;;;5090150;28;20054;-75
2022/06/19 12:51:43;;;;;;;3.47;1.40;;;;;;;;;;5097331;28;20074;-76
2022/06/19 12:54:23;;;;;;;5.28;1.30;;;;;;;;;;5094396;28;20110;-75
2022/06/19 12:56:57;;;;;;;4.47;1.17;;;;;;;;;;5100108;28;20027;-76
2022/06/19 12:59:51;;;;;;;5.13;1.42;;;;;;;;;;5101593;28;21051;-76
2022/06/19 13:02:26;;;;;;;4.00;1.30;;;;;;;;;;5095246;28;20055;-75
2022/06/19 13:05:08;;;;;;;4.30;1.48;;;;;;;;;;5097042;28;20059;-76
2022/06/19 13:08:22;;;;;;;3.20;1.27;;;;;;;;;;5085310;28;20517;-75
2022/06/19 13:10:58;;;;;;;3.38;1.10;;;;;;;;;;5068575;28;20912;-75
2022/06/19 13:13:45;;;;;;;4.95;1.20;;;;;;;;;;5077858;28;20163;-75
2022/06/19 13:16:21;;;;;;;3.55;0.98;;;;;;;;;;5104633;27;20042;-75
2022/06/19 13:19:03;;;;;;;6.28;1.17;;;;;;;;;;5084130;28;20039;-74
2022/06/19 13:21:55;;;;;;;3.55;1.00;;;;;;;;;;5085122;28;20076;-75
2022/06/19 13:24:32;;;;;;;2.20;1.10;;;;;;;;;;5085455;28;20541;-76
2022/06/19 13:27:22;;;;;;;3.70;1.20;;;;;;;;;;5087957;28;20484;-75
2022/06/19 13:30:06;;;;;;;3.38;1.17;;;;;;;;;;5087373;28;20031;-75
2022/06/19 13:33:05;;;;;;;4.25;0.93;;;;;;;;;;5088682;27;20084;-74
2022/06/19 13:35:51;;;;;;;3.83;1.10;;;;;;;;;;5083152;28;20063;-75
2022/06/19 13:38:16;;;;;;;3.22;1.10;;;;;;;;;;5085643;28;20056;-75
2022/06/19 13:40:52;;;;;;;2.88;1.25;;;;;;;;;;5090502;28;20028;-75
2022/06/19 13:43:27;;;;;;;3.15;1.00;;;;;;;;;;5083120;28;20990;-75
2022/06/19 13:46:25;;;;;;;1.63;0.80;;;;;;;;;;5087937;28;20023;-75
2022/06/19 13:49:06;;;;;;;2.90;0.90;;;;;;;;;;5091074;28;20030;-75
2022/06/19 13:51:53;;;;;;;5.05;1.25;;;;;;;;;;5090963;28;20484;-75
2022/06/19 13:54:29;;;;;;;3.30;1.00;;;;;;;;;;5093340;27;20040;-75
2022/06/19 13:57:06;;;;;;;3.67;0.85;;;;;;;;;;5088473;27;20108;-75
2022/06/19 13:59:43;;;;;;;3.47;0.80;;;;;;;;;;5086606;28;20441;-75
2022/06/19 14:02:32;;;;;;;5.82;0.98;;;;;;;;;;5095392;27;20050;-75
2022/06/19 14:05:07;;;;;;;4.00;0.80;;;;;;;;;;5093110;28;20777;-75
2022/06/19 14:08:02;;;;;;;5.13;1.08;;;;;;;;;;5094596;27;20047;-75
2022/06/19 14:11:04;;;;;;;3.38;0.90;;;;;;;;;;5096140;27;22070;-75
2022/06/19 14:13:36;;;;;;;3.38;0.90;;;;;;;;;;5092527;28;20720;-76
2022/06/19 14:16:20;;;;;;;3.08;0.90;;;;;;;;;;5098203;27;20515;-76
2022/06/19 14:19:29;;;;;;;4.07;1.10;;;;;;;;;;5107555;27;20024;-75
2022/06/19 14:22:09;;;;;;;2.33;0.85;;;;;;;;;;5097464;27;20031;-76
2022/06/19 14:24:59;;;;;;;3.67;0.90;;;;;;;;;;5095253;28;20035;-76
2022/06/19 14:27:33;;;;;;;4.25;1.00;;;;;;;;;;5106434;28;20678;-75
2022/06/19 14:30:11;;;;;;;3.47;0.90;;;;;;;;;;5092730;27;20380;-75
2022/06/19 14:32:43;;;;;;;4.80;1.10;;;;;;;;;;5094136;27;20030;-75
2022/06/19 14:35:08;;;;;;;4.93;1.05;;;;;;;;;;5101057;28;20043;-75
2022/06/19 14:38:05;;;;;;;3.20;1.25;;;;;;;;;;5093800;27;20040;-75
2022/06/19 14:40:31;;;;;;;3.20;1.00;;;;;;;;;;5082707;28;21022;-76
2022/06/19 14:43:03;;;;;;;3.55;0.85;;;;;;;;;;5105206;28;20055;-75
2022/06/19 14:45:49;;;;;;;2.63;0.97;;;;;;;;;;5106500;28;20483;-76
2022/06/19 14:48:22;;;;;;;2.53;1.00;;;;;;;;;;5103735;28;20047;-75
2022/06/19 14:51:09;;;;;;;3.08;0.93;;;;;;;;;;5105796;28;20035;-76
2022/06/19 14:54:09;;;;;;;2.63;1.00;;;;;;;;;;5107626;28;20072;-75
2022/06/19 14:56:41;;;;;;;2.67;1.08;;;;;;;;;;5103069;28;20521;-76
2022/06/19 14:59:27;;;;;;;2.83;0.88;;;;;;;;;;5101111;28;20027;-76
2022/06/19 15:01:54;;;;;;;3.17;0.85;;;;;;;;;;5109456;28;20080;-73
2022/06/19 15:04:26;;;;;;;2.22;1.00;;;;;;;;;;5106007;28;20028;-76
2022/06/19 15:07:04;;;;;;;2.67;0.77;;;;;;;;;;5109167;28;20028;-76
2022/06/19 15:09:41;;;;;;;3.00;1.00;;;;;;;;;;5100244;27;20024;-74
2022/06/19 15:12:23;;;;;;;1.80;0.80;;;;;;;;;;5106525;28;20035;-75
2022/06/19 15:14:50;;;;;;;2.55;0.90;;;;;;;;;;5109085;28;20080;-73
2022/06/19 15:17:41;;;;;;;4.15;1.30;;;;;;;;;;5106942;28;20481;-73
2022/06/19 15:20:25;;;;;;;2.90;0.93;;;;;;;;;;5116313;27;20137;-73
2022/06/19 15:23:14;;;;;;;1.83;1.05;;;;;;;;;;5104891;28;20034;-74
2022/06/19 15:25:40;;;;;;;2.90;1.05;;;;;;;;;;5101879;28;20016;-74
2022/06/19 15:28:33;;;;;;;2.28;1.08;;;;;;;;;;5104339;28;20042;-74